VHHH/HKG METAR and TAF weather

Enter ICAO airport designator
Station Type Date Time Source
VHHH METAR 2023/01/29 19:30 UTC NOAA

VHHH 291930Z 13003KT CAVOK 11/M03 Q1023 NOSIG


Station Type Date Time Source
VHHH Decoded METAR 2023/01/29 19:30 UTC NOAA

Hong Kong Inter-National Airport, Hong Kong (VHHH) 22-20N 114-11E 24M
Jan 29, 2023 - 02:30 PM EST / 2023.01.29 1930 UTC
Wind: from the SE (130 degrees) at 3 MPH (3 KT):0
Visibility: greater than 7 mile(s):0
Temperature: 51 F (11 C)
Dew Point: 26 F (-3 C)
Relative Humidity: 37%
Pressure (altimeter): 30.21 in. Hg (1023 hPa)
ob: VHHH 291930Z 13003KT CAVOK 11/M03 Q1023 NOSIG
cycle: 19

Station Type Date Time Source
VHHH TAF 2023/01/29 18:07 UTC NOAA

TAF VHHH 291700Z 2918/3024 06010KT CAVOK TX18/3006Z TN11/2923Z TN14/3023Z
BECMG 3003/3005 29010KT
BECMG 3009/3011 08010KT

Example: see airport list